Time;durP1;ratioP1;P1;durP2;ratioP2;P2;SDS_P1;SDS_P2;PMS_P1;PMS_P2;Temp;Humidity;BMP_temperature;BMP_pressure;BME280_temperature;BME280_humidity;BME280_pressure;Samples;Min_cycle;Max_cycle;Signal;HPM_P1;HPM_P2
2022/06/07 00:01:12;;;;;;;2.05;0.88;;;;;;;13.58;74.66;100567.50;4951485;29;20102;-66
2022/06/07 00:04:16;;;;;;;2.45;0.70;;;;;;;13.55;74.75;100572.97;4951721;29;20098;-66
2022/06/07 00:07:20;;;;;;;2.38;0.93;;;;;;;13.64;74.14;100572.38;4955080;29;20137;-66
2022/06/07 00:10:25;;;;;;;2.88;0.80;;;;;;;13.64;74.25;100572.38;4954083;29;20110;-66
2022/06/07 00:13:28;;;;;;;2.75;0.70;;;;;;;13.57;74.54;100573.72;4954135;29;20053;-66
2022/06/07 00:16:31;;;;;;;2.58;0.57;;;;;;;13.54;74.37;100570.44;4954313;29;20094;-66
2022/06/07 00:19:35;;;;;;;5.25;0.70;;;;;;;13.55;74.50;100562.44;4954944;29;20050;-66
2022/06/07 00:22:38;;;;;;;3.60;0.85;;;;;;;13.60;74.36;100570.91;4954823;29;20045;-66
2022/06/07 00:25:44;;;;;;;4.65;0.70;;;;;;;13.60;74.56;100564.81;4955165;29;20583;-66
2022/06/07 00:28:48;;;;;;;3.55;0.85;;;;;;;13.68;74.51;100558.09;4953145;29;20102;-66
2022/06/07 00:31:51;;;;;;;2.92;0.47;;;;;;;13.68;74.79;100558.09;4949120;28;20061;-66
2022/06/07 00:34:54;;;;;;;2.13;0.73;;;;;;;13.71;74.98;100563.16;4954173;29;20046;-66
2022/06/07 00:37:57;;;;;;;1.50;0.80;;;;;;;13.69;75.06;100561.59;4954134;28;20093;-66
2022/06/07 00:41:03;;;;;;;2.92;0.90;;;;;;;13.60;75.30;100560.38;4949415;29;20460;-66
2022/06/07 00:44:26;;;;;;;4.00;0.65;;;;;;;13.65;75.35;100563.53;4949946;29;20050;-66
2022/06/07 00:47:30;;;;;;;;;;;;;;;13.58;75.67;100558.78;4947637;29;20050;-66
2022/06/07 00:50:58;;;;;;;3.83;0.88;;;;;;;13.56;76.04;100560.66;4947891;29;20427;-66
2022/06/07 00:54:01;;;;;;;3.63;0.85;;;;;;;13.58;76.22;100551.75;4949183;29;20090;-66
2022/06/07 00:57:06;;;;;;;4.68;1.00;;;;;;;13.48;76.63;100563.78;4951627;28;20515;-66
2022/06/07 01:00:16;;;;;;;3.53;0.95;;;;;;;13.45;76.88;100562.19;4952845;29;20194;-66
2022/06/07 01:03:22;;;;;;;3.17;0.80;;;;;;;13.38;77.05;100549.56;4941611;29;20054;-66
2022/06/07 01:13:16;;;;;;;2.60;0.90;;;;;;;13.64;75.98;100550.53;4963950;28;20054;-65
2022/06/07 01:16:20;;;;;;;2.38;0.68;;;;;;;13.66;74.51;100549.47;4942043;29;20050;-66
2022/06/07 01:19:24;;;;;;;4.57;0.68;;;;;;;13.76;74.48;100546.25;4946202;29;20059;-66
2022/06/07 01:22:28;;;;;;;1.40;0.50;;;;;;;13.63;75.62;100547.06;4954150;29;20050;-66
2022/06/07 01:25:31;;;;;;;2.08;0.65;;;;;;;13.67;75.46;100542.44;4936245;29;20062;-66
2022/06/07 01:28:37;;;;;;;3.67;0.70;;;;;;;13.43;76.32;100548.34;4947865;29;20038;-66
2022/06/07 01:31:43;;;;;;;3.35;1.00;;;;;;;13.57;75.88;100552.69;4959197;28;20086;-66
2022/06/07 01:34:47;;;;;;;2.80;0.82;;;;;;;13.67;74.99;100542.44;4937212;29;20094;-66
2022/06/07 01:37:50;;;;;;;4.50;0.80;;;;;;;13.43;76.21;100542.22;4945346;28;20053;-66
2022/06/07 01:44:16;;;;;;;3.03;0.70;;;;;;;13.36;76.54;100535.69;4980083;28;20057;-66
2022/06/07 01:47:28;;;;;;;2.85;0.77;;;;;;;13.15;77.26;100546.56;4973043;28;20045;-66
2022/06/07 01:50:34;;;;;;;3.05;1.20;;;;;;;13.14;77.49;100544.88;4955521;28;20053;-66
2022/06/07 01:53:38;;;;;;;2.25;0.70;;;;;;;12.98;78.07;100550.22;4966801;28;20089;-66
2022/06/07 01:56:41;;;;;;;1.65;0.50;;;;;;;13.05;78.10;100550.72;4965079;28;20409;-66
2022/06/07 01:59:44;;;;;;;2.78;0.70;;;;;;;13.03;77.88;100545.56;4956499;28;20041;-66
2022/06/07 02:02:54;;;;;;;1.50;0.52;;;;;;;13.06;77.75;100547.16;4966609;28;20049;-66
2022/06/07 02:06:03;;;;;;;3.60;0.70;;;;;;;13.07;77.42;100540.94;4967078;28;20420;-66
2022/06/07 02:09:09;;;;;;;1.88;0.70;;;;;;;12.99;78.08;100545.84;4970614;28;20117;-66
2022/06/07 02:12:14;;;;;;;3.75;0.90;;;;;;;12.85;78.66;100533.56;4986958;28;20101;-66
2022/06/07 02:15:17;;;;;;;2.97;0.70;;;;;;;12.93;78.54;100538.34;4983675;28;20600;-66
2022/06/07 02:18:20;;;;;;;2.88;0.80;;;;;;;12.91;78.74;100530.56;4956777;28;20102;-66
2022/06/07 02:21:33;;;;;;;5.73;0.70;;;;;;;13.16;77.81;100529.88;4969796;28;20054;-66
2022/06/07 02:24:37;;;;;;;2.25;0.70;;;;;;;13.28;77.34;100522.22;4970733;28;20281;-66
2022/06/07 02:27:41;;;;;;;2.70;0.73;;;;;;;13.23;77.22;100522.44;4968582;28;20460;-66
2022/06/07 02:30:45;;;;;;;6.63;0.93;;;;;;;13.10;77.79;100529.41;4968981;28;20123;-66
2022/06/07 02:33:48;;;;;;;2.90;0.57;;;;;;;13.13;78.23;100530.06;4969258;28;20045;-66
2022/06/07 02:36:57;;;;;;;3.40;0.73;;;;;;;13.13;78.14;100527.44;4968653;28;20053;-66
2022/06/07 02:40:01;;;;;;;3.22;0.70;;;;;;;13.17;78.00;100526.31;4968811;28;20056;-66
2022/06/07 02:43:05;;;;;;;2.08;0.80;;;;;;;13.41;76.97;100523.09;4974101;28;20053;-66
2022/06/07 02:46:08;;;;;;;2.88;0.82;;;;;;;13.34;76.84;100514.78;4973257;28;20050;-66
2022/06/07 02:49:14;;;;;;;2.38;0.90;;;;;;;13.24;77.49;100522.41;4973880;28;20069;-66
2022/06/07 02:52:20;;;;;;;3.90;1.00;;;;;;;13.09;77.90;100523.34;4975572;28;20413;-66
2022/06/07 02:55:34;;;;;;;2.03;0.70;;;;;;;13.02;78.89;100516.78;4958088;28;20114;-66
2022/06/07 02:58:46;;;;;;;4.22;0.85;;;;;;;13.04;78.84;100525.38;4970889;28;20183;-66
2022/06/07 03:01:50;;;;;;;4.78;0.60;;;;;;;13.16;78.20;100516.75;4982723;28;20045;-66
2022/06/07 03:04:54;;;;;;;5.00;1.10;;;;;;;13.10;78.69;100509.25;4960412;28;20042;-66
2022/06/07 03:07:58;;;;;;;5.95;1.00;;;;;;;13.08;79.26;100516.41;4971818;28;20109;-66
2022/06/07 03:11:02;;;;;;;4.63;0.63;;;;;;;13.19;78.91;100519.19;4972232;28;20513;-66
2022/06/07 03:14:07;;;;;;;2.65;0.65;;;;;;;13.36;78.18;100514.66;4958654;28;20042;-66
2022/06/07 03:17:11;;;;;;;1.90;0.70;;;;;;;13.33;78.16;100523.59;4975342;28;20591;-66
2022/06/07 03:20:15;;;;;;;3.22;0.70;;;;;;;13.19;78.76;100527.06;4985104;28;20049;-66
2022/06/07 03:23:20;;;;;;;5.43;0.82;;;;;;;13.16;78.87;100527.25;4955595;28;20565;-66
2022/06/07 03:26:29;;;;;;;3.50;0.73;;;;;;;13.13;79.21;100524.81;4955818;28;20094;-66
2022/06/07 03:29:46;;;;;;;2.63;0.80;;;;;;;13.20;79.33;100525.28;4968996;28;20050;-66
2022/06/07 03:32:57;;;;;;;2.85;0.95;;;;;;;13.37;78.36;100519.84;4981383;28;20081;-66
2022/06/07 03:36:13;;;;;;;2.35;0.80;;;;;;;13.21;79.14;100521.72;4979152;28;20412;-66
2022/06/07 03:39:17;;;;;;;3.13;0.90;;;;;;;13.13;79.33;100524.81;4976496;28;20094;-66
2022/06/07 03:42:31;;;;;;;4.22;1.15;;;;;;;13.06;79.72;100528.78;4978826;28;20125;-66
2022/06/07 03:45:38;;;;;;;4.30;0.80;;;;;;;13.08;79.83;100532.16;4968721;28;20456;-66
2022/06/07 03:48:45;;;;;;;3.05;1.15;;;;;;;12.99;80.46;100533.56;4968498;28;20126;-66
2022/06/07 03:51:50;;;;;;;4.18;1.10;;;;;;;13.08;80.14;100528.66;4970280;28;20085;-66
2022/06/07 03:54:55;;;;;;;3.05;0.80;;;;;;;13.23;79.38;100525.91;4959616;28;20054;-66
2022/06/07 03:58:01;;;;;;;4.80;1.02;;;;;;;13.26;79.00;100531.00;4979730;28;20427;-66
2022/06/07 04:01:06;;;;;;;3.30;0.77;;;;;;;13.05;79.81;100527.09;4974775;28;20058;-66
2022/06/07 04:04:11;;;;;;;2.70;0.80;;;;;;;13.08;79.36;100532.16;4972593;28;20046;-67
2022/06/07 04:10:59;;;;;;;2.55;0.88;;;;;;;13.19;77.17;100534.09;4973008;28;20405;-67
2022/06/07 04:14:28;;;;;;;3.15;1.27;;;;;;;13.13;78.04;100530.06;4972722;28;20116;-66
2022/06/07 04:17:32;;;;;;;4.15;1.08;;;;;;;13.23;77.47;100531.16;4978722;28;20131;-66
2022/06/07 04:20:58;;;;;;;;;;;;;;;13.10;77.60;100524.16;4968709;28;20108;-70
2022/06/07 04:24:01;;;;;;;2.00;0.70;;;;;;;13.05;77.51;100524.47;4973303;28;19936;-68
2022/06/07 04:27:05;;;;;;;2.42;0.95;;;;;;;13.03;77.67;100529.81;4983021;28;20527;-66
2022/06/07 04:30:11;;;;;;;2.80;1.27;;;;;;;12.95;77.64;100533.84;4972507;28;20053;-66
2022/06/07 04:33:18;;;;;;;4.07;1.70;;;;;;;13.19;76.74;100528.84;4952148;28;20041;-66
2022/06/07 04:36:27;;;;;;;12.70;10.65;;;;;;;13.02;77.03;100535.16;4965979;28;20042;-66
2022/06/07 04:39:58;;;;;;;42.50;37.72;;;;;;;13.12;77.31;100540.69;4927964;29;20418;-68
2022/06/07 04:43:02;;;;;;;37.50;33.42;;;;;;;12.99;78.00;100538.81;4934527;29;20521;-67
2022/06/07 04:46:11;;;;;;;27.52;24.52;;;;;;;13.00;78.21;100543.13;4934578;29;20094;-67
2022/06/07 04:49:14;;;;;;;18.35;16.20;;;;;;;12.85;78.49;100546.69;4934520;29;20046;-67
2022/06/07 04:52:18;;;;;;;10.40;8.95;;;;;;;12.93;78.60;100549.69;4945383;28;20042;-69
2022/06/07 04:55:21;;;;;;;4.72;2.17;;;;;;;13.06;78.20;100541.06;4927222;29;20047;-68
2022/06/07 04:58:26;;;;;;;10.27;4.15;;;;;;;13.11;78.07;100541.59;4927569;29;20418;-68
2022/06/07 05:01:34;;;;;;;40.30;29.77;;;;;;;13.24;77.42;100548.66;4934180;29;20528;-68
2022/06/07 05:04:41;;;;;;;10.50;6.45;;;;;;;13.18;77.89;100546.38;4922051;29;20521;-68
2022/06/07 05:07:53;;;;;;;4.97;3.40;;;;;;;13.19;78.28;100552.47;4934190;29;20106;-68
2022/06/07 05:10:59;;;;;;;2.38;1.10;;;;;;;12.90;79.14;100556.91;4934020;29;20094;-68
2022/06/07 05:14:05;;;;;;;7.80;1.30;;;;;;;12.72;80.25;100562.31;4930453;29;20421;-68
2022/06/07 05:17:10;;;;;;;2.30;0.80;;;;;;;12.77;80.45;100560.28;4933294;29;20045;-68
2022/06/07 05:20:16;;;;;;;2.75;1.17;;;;;;;12.96;79.81;100559.16;4926134;29;20051;-68
2022/06/07 05:23:23;;;;;;;3.92;1.30;;;;;;;12.95;80.25;100558.28;4938028;28;20046;-67
2022/06/07 05:26:51;;;;;;;2.58;1.08;;;;;;;13.05;79.99;100558.59;4928496;29;20108;-67
2022/06/07 05:30:00;;;;;;;4.95;1.52;;;;;;;13.09;79.81;100559.25;4939895;28;20473;-68
2022/06/07 05:33:22;;;;;;;3.45;0.93;;;;;;;13.09;80.07;100559.25;4934758;29;20135;-68
2022/06/07 05:36:30;;;;;;;4.20;1.40;;;;;;;13.06;80.54;100555.03;4916880;29;20426;-68
2022/06/07 05:39:39;;;;;;;3.47;1.50;;;;;;;13.21;79.94;100554.06;4940006;28;20066;-68
2022/06/07 05:42:45;;;;;;;4.40;1.27;;;;;;;13.30;80.17;100552.66;4940805;28;20046;-68
2022/06/07 05:45:55;;;;;;;3.38;1.30;;;;;;;13.50;79.43;100543.53;4945854;28;20139;-69
2022/06/07 05:49:22;;;;;;;2.72;1.00;;;;;;;13.56;79.45;100550.16;4938355;29;20131;-69
2022/06/07 05:52:40;;;;;;;3.67;0.85;;;;;;;13.61;79.84;100546.28;4937895;29;20433;-69
2022/06/07 05:55:46;;;;;;;4.35;1.38;;;;;;;13.86;79.08;100545.53;4944618;29;20050;-70
2022/06/07 05:58:50;;;;;;;3.45;0.95;;;;;;;13.96;78.26;100551.03;4938382;29;20102;-69
2022/06/07 06:01:54;;;;;;;3.95;1.00;;;;;;;14.06;78.06;100546.00;4923864;29;20054;-69
2022/06/07 06:05:03;;;;;;;3.22;1.10;;;;;;;14.21;78.51;100541.53;4937290;29;20098;-69
2022/06/07 06:11:33;;;;;;;3.38;0.90;;;;;;;14.32;78.43;100541.63;4948503;28;20051;-68
2022/06/07 06:14:55;;;;;;;2.35;0.77;;;;;;;14.52;77.87;100543.81;4934776;29;20728;-67
2022/06/07 06:18:03;;;;;;;3.72;0.80;;;;;;;14.57;77.72;100532.94;4937004;29;20509;-67
2022/06/07 06:21:11;;;;;;;8.05;1.45;;;;;;;14.73;77.58;100533.56;4936435;29;20050;-68
2022/06/07 06:24:17;;;;;;;2.50;0.47;;;;;;;14.87;76.88;100530.84;4937145;29;20051;-69
2022/06/07 06:27:22;;;;;;;3.22;0.63;;;;;;;15.14;74.91;100529.00;4930103;29;20076;-69
2022/06/07 06:30:28;;;;;;;2.47;0.70;;;;;;;15.33;73.28;100522.28;4936906;29;20046;-68
2022/06/07 06:33:41;;;;;;;3.88;0.50;;;;;;;15.64;71.29;100521.84;4931988;29;20509;-69
2022/06/07 06:36:45;;;;;;;6.15;1.50;;;;;;;15.84;69.37;100529.16;4932892;29;20055;-69
2022/06/07 06:39:49;;;;;;;2.20;0.70;;;;;;;15.92;69.08;100529.44;4933428;29;20175;-69
2022/06/07 06:42:52;;;;;;;1.50;0.45;;;;;;;16.06;68.44;100517.84;4933943;29;20513;-70
2022/06/07 06:46:15;;;;;;;3.42;0.88;;;;;;;16.17;66.76;100517.03;4936942;29;20150;-69
2022/06/07 06:49:20;;;;;;;4.10;0.65;;;;;;;16.39;66.14;100522.34;4947780;28;20477;-68
2022/06/07 06:52:25;;;;;;;2.97;0.80;;;;;;;16.57;65.58;100521.91;4940926;28;20046;-70
2022/06/07 06:55:29;;;;;;;3.88;0.63;;;;;;;16.76;65.17;100516.91;4940754;29;20106;-69
2022/06/07 06:58:33;;;;;;;3.67;0.60;;;;;;;16.86;64.35;100512.56;4930784;29;20113;-66
2022/06/07 07:01:38;;;;;;;5.82;0.60;;;;;;;16.93;63.98;100513.75;4942338;28;20090;-62
2022/06/07 07:04:42;;;;;;;4.07;0.93;;;;;;;17.05;63.74;100506.69;4943077;28;20046;-62
2022/06/07 07:07:46;;;;;;;5.07;0.68;;;;;;;17.20;62.74;100515.19;4932212;29;20102;-62
2022/06/07 07:11:08;;;;;;;3.83;0.60;;;;;;;17.16;61.79;100508.44;4935898;29;20103;-62
2022/06/07 07:14:13;;;;;;;2.38;0.60;;;;;;;17.23;61.35;100509.66;4936178;29;20094;-62
2022/06/07 07:17:18;;;;;;;2.50;0.60;;;;;;;17.33;60.55;100499.19;4928273;29;20046;-62
2022/06/07 07:21:13;;;;;;;8.07;1.30;;;;;;;17.34;60.81;100501.69;4929317;29;20082;-65
2022/06/07 07:24:20;;;;;;;2.67;0.60;;;;;;;17.40;60.53;100495.91;4928387;29;20075;-74
2022/06/07 07:27:29;;;;;;;2.50;0.68;;;;;;;17.67;59.79;100500.72;4939605;28;20044;-74
2022/06/07 07:30:33;;;;;;;5.68;1.00;;;;;;;17.69;58.11;100505.91;4930291;29;20116;-73
2022/06/07 07:33:36;;;;;;;4.15;0.60;;;;;;;17.63;57.74;100501.94;4930600;29;20055;-71
2022/06/07 07:36:46;;;;;;;5.35;1.00;;;;;;;17.62;58.09;100494.16;4930533;29;20114;-71
2022/06/07 07:39:50;;;;;;;3.60;0.90;;;;;;;17.56;57.96;100497.31;4943331;28;20054;-69
2022/06/07 07:42:58;;;;;;;2.65;0.57;;;;;;;17.63;57.81;100487.91;4936315;29;20054;-70
2022/06/07 07:46:07;;;;;;;3.13;0.70;;;;;;;17.71;57.22;100488.13;4934619;29;20050;-70
2022/06/07 07:49:13;;;;;;;3.70;0.70;;;;;;;17.85;56.52;100484.34;4923926;29;20188;-70
2022/06/07 07:52:19;;;;;;;2.80;0.47;;;;;;;17.83;55.56;100486.28;4946564;28;20187;-70
2022/06/07 07:55:28;;;;;;;2.55;0.50;;;;;;;18.08;53.35;100474.47;4929244;29;20059;-70
2022/06/07 07:58:32;;;;;;;2.03;0.32;;;;;;;18.09;54.55;100473.50;4936250;29;20138;-70
2022/06/07 08:01:39;;;;;;;3.53;0.50;;;;;;;18.10;52.07;100472.56;4941283;28;20050;-70
2022/06/07 08:04:43;;;;;;;3.58;0.43;;;;;;;18.21;52.56;100475.09;4919963;29;20067;-70
2022/06/07 08:07:46;;;;;;;3.05;0.43;;;;;;;18.24;51.31;100464.25;4916351;29;20046;-70
2022/06/07 08:10:50;;;;;;;1.75;0.30;;;;;;;18.47;50.47;100469.38;4936127;29;20498;-70
2022/06/07 08:13:53;;;;;;;2.75;0.40;;;;;;;18.56;48.95;100473.88;4935804;29;20569;-70
2022/06/07 08:16:57;;;;;;;4.88;0.40;;;;;;;18.55;48.41;100472.22;4935869;29;20090;-70
2022/06/07 08:20:00;;;;;;;2.05;0.50;;;;;;;18.74;47.74;100467.03;4935794;29;20061;-71
2022/06/07 08:23:07;;;;;;;1.90;0.40;;;;;;;18.64;48.60;100463.47;4936064;29;20049;-70
2022/06/07 08:26:11;;;;;;;0.98;0.20;;;;;;;18.68;48.18;100462.25;4935681;29;20055;-70
2022/06/07 08:29:20;;;;;;;2.78;0.47;;;;;;;18.80;47.47;100471.78;4935574;29;20099;-68
2022/06/07 08:32:23;;;;;;;1.45;0.38;;;;;;;19.03;45.12;100471.56;4935739;29;20123;-68
2022/06/07 08:38:48;;;;;;;1.20;0.25;;;;;;;19.34;43.68;100463.56;4921932;29;20055;-69
2022/06/07 08:41:59;;;;;;;2.83;0.57;;;;;;;19.19;43.98;100463.94;4916517;29;20047;-69
2022/06/07 08:45:12;;;;;;;1.67;0.50;;;;;;;19.23;45.04;100456.53;4911490;29;20051;-68
2022/06/07 08:48:25;;;;;;;1.48;0.20;;;;;;;19.22;44.15;100455.72;4916408;29;20050;-68
2022/06/07 08:51:38;;;;;;;1.52;0.30;;;;;;;19.34;44.37;100455.59;4916517;29;20047;-68
2022/06/07 08:54:43;;;;;;;1.35;0.52;;;;;;;19.47;44.00;100446.38;4916640;29;20050;-68
2022/06/07 08:57:54;;;;;;;3.17;0.50;;;;;;;19.51;43.90;100458.38;4916067;29;20039;-69
2022/06/07 09:01:06;;;;;;;0.68;0.10;;;;;;;19.22;45.22;100454.88;4916277;29;20051;-69
2022/06/07 09:04:25;;;;;;;1.95;0.30;;;;;;;19.27;45.11;100457.94;4916389;29;20079;-69
2022/06/07 09:07:28;;;;;;;2.45;0.28;;;;;;;19.30;45.72;100447.06;4916240;29;20116;-69
2022/06/07 09:13:54;;;;;;;;;;;;;;;19.23;45.70;100441.47;4916406;29;20062;-69
2022/06/07 09:16:59;;;;;;;2.00;0.30;;;;;;;19.45;45.94;100450.13;4916095;29;20385;-69
2022/06/07 09:20:06;;;;;;;2.63;0.43;;;;;;;19.63;45.82;100435.22;4915663;29;20587;-69
2022/06/07 09:23:24;;;;;;;2.03;0.50;;;;;;;19.64;45.69;100428.13;4915889;29;20539;-69
2022/06/07 09:26:37;;;;;;;1.73;0.30;;;;;;;19.56;45.80;100436.75;4915808;29;20054;-69
2022/06/07 09:29:41;;;;;;;5.18;0.38;;;;;;;19.56;46.00;100442.06;4915998;29;20055;-69
2022/06/07 09:32:45;;;;;;;1.67;0.43;;;;;;;19.63;46.79;100432.56;4914817;29;20114;-69
2022/06/07 09:35:49;;;;;;;1.40;0.22;;;;;;;19.70;45.78;100432.84;4915828;29;20071;-69
2022/06/07 09:38:57;;;;;;;1.70;0.38;;;;;;;19.76;45.66;100429.66;4915587;29;20066;-69
2022/06/07 09:42:17;;;;;;;2.88;0.50;;;;;;;19.97;45.36;100429.44;4914772;29;20189;-69
2022/06/07 09:45:27;;;;;;;2.22;0.25;;;;;;;20.05;45.02;100426.94;4915630;29;20051;-69
2022/06/07 09:48:30;;;;;;;3.38;0.30;;;;;;;20.10;42.93;100424.69;4915721;29;20414;-69
2022/06/07 09:51:41;;;;;;;2.05;0.35;;;;;;;20.10;43.22;100415.88;4915586;29;20047;-69
2022/06/07 09:54:47;;;;;;;2.45;0.40;;;;;;;20.13;44.24;100416.44;4915675;29;20047;-69
2022/06/07 09:58:01;;;;;;;1.27;0.30;;;;;;;20.18;44.66;100423.97;4915673;29;20072;-69
2022/06/07 10:01:28;;;;;;;3.47;0.40;;;;;;;20.19;44.69;100429.09;4915563;29;20047;-69
2022/06/07 10:05:16;;;;;;;2.85;0.68;;;;;;;20.40;41.76;100412.97;4915671;29;20063;-70
2022/06/07 10:09:14;;;;;;;2.63;0.30;;;;;;;20.49;41.74;100413.91;4895305;29;20136;-70
2022/06/07 10:12:33;;;;;;;1.73;0.43;;;;;;;20.60;42.23;100403.13;4890628;29;20055;-69
2022/06/07 10:16:00;;;;;;;1.83;0.40;;;;;;;20.86;42.42;100405.06;4915209;29;20482;-70
2022/06/07 10:19:36;;;;;;;1.92;0.35;;;;;;;21.09;41.47;100398.34;4910651;29;20047;-69
2022/06/07 10:23:16;;;;;;;3.00;0.60;;;;;;;21.03;41.95;100400.78;4915261;29;20553;-69
2022/06/07 10:26:28;;;;;;;2.67;0.70;;;;;;;21.10;40.85;100400.00;4915247;29;20055;-71
2022/06/07 10:29:37;;;;;;;2.60;0.47;;;;;;;21.22;40.76;100397.97;4915458;29;20099;-72
2022/06/07 10:32:50;;;;;;;1.38;0.40;;;;;;;21.10;41.33;100381.41;4918832;29;20111;-62
2022/06/07 10:36:13;;;;;;;4.47;0.70;;;;;;;20.95;41.88;100387.41;4918380;29;20095;-63
2022/06/07 10:39:40;;;;;;;2.17;0.40;;;;;;;20.92;41.25;100396.50;4933906;29;20521;-63
2022/06/07 10:42:55;;;;;;;2.35;0.35;;;;;;;20.90;41.65;100387.84;4937718;29;20122;-74
2022/06/07 10:46:00;;;;;;;4.47;0.50;;;;;;;20.88;42.37;100387.16;4937609;29;20078;-75
2022/06/07 10:49:31;;;;;;;3.13;0.50;;;;;;;20.80;43.95;100392.38;4937404;29;20038;-74
2022/06/07 10:52:51;;;;;;;3.53;0.55;;;;;;;20.80;42.86;100379.91;4937463;29;20099;-74
2022/06/07 10:56:24;;;;;;;6.05;0.63;;;;;;;20.76;43.79;100388.34;4937582;29;20066;-72
2022/06/07 10:59:29;;;;;;;2.60;0.57;;;;;;;20.74;43.76;100379.69;4937313;29;20139;-72
2022/06/07 11:02:47;;;;;;;2.53;0.60;;;;;;;20.58;44.45;100370.56;4937295;29;20098;-71
2022/06/07 11:09:47;;;;;;;3.30;0.40;;;;;;;20.58;44.26;100380.34;4936847;29;20104;-72
2022/06/07 11:13:02;;;;;;;1.63;0.63;;;;;;;20.53;44.78;100375.47;4937181;29;20054;-71
2022/06/07 11:16:08;;;;;;;4.00;0.57;;;;;;;20.49;45.11;100376.75;4936574;29;20095;-71
2022/06/07 11:19:12;;;;;;;3.55;0.50;;;;;;;20.43;44.91;100378.16;4937239;29;20055;-72
2022/06/07 11:22:18;;;;;;;2.78;0.55;;;;;;;20.61;44.66;100380.91;4936695;29;20618;-73
2022/06/07 11:25:34;;;;;;;3.05;0.40;;;;;;;20.59;43.49;100369.56;4936624;29;20453;-73
2022/06/07 11:28:40;;;;;;;3.50;0.77;;;;;;;20.63;43.76;100376.25;4936693;29;20114;-70
2022/06/07 11:31:45;;;;;;;3.95;0.80;;;;;;;20.59;43.60;100369.56;4947331;28;20114;-77
2022/06/07 11:34:48;;;;;;;4.65;0.75;;;;;;;20.47;44.45;100368.06;4936906;29;20103;-75
2022/06/07 11:37:52;;;;;;;3.55;0.73;;;;;;;20.64;44.85;100367.31;4936210;29;20055;-73
2022/06/07 11:44:41;;;;;;;3.45;0.60;;;;;;;20.73;47.28;100354.09;4936482;29;20469;-76
2022/06/07 11:47:44;;;;;;;5.35;0.77;;;;;;;20.94;47.48;100356.50;4935541;29;20127;-70
2022/06/07 11:50:56;;;;;;;4.82;0.80;;;;;;;20.86;48.87;100362.53;4935595;29;20089;-67
2022/06/07 11:54:06;;;;;;;5.45;0.70;;;;;;;20.79;47.31;100353.50;4936270;29;20102;-68
2022/06/07 11:57:32;;;;;;;3.53;0.43;;;;;;;20.86;47.30;100341.28;4936247;29;20135;-69
2022/06/07 12:00:38;;;;;;;2.78;0.47;;;;;;;20.72;48.25;100352.44;4936048;29;20426;-71
2022/06/07 12:03:42;;;;;;;7.95;0.90;;;;;;;20.74;46.96;100339.84;4935722;29;20050;-70
2022/06/07 12:06:47;;;;;;;2.35;0.50;;;;;;;20.60;46.97;100342.03;4950548;29;20050;-70
2022/06/07 12:09:57;;;;;;;3.25;0.50;;;;;;;20.58;46.95;100341.34;4965525;28;20121;-69
2022/06/07 12:13:16;;;;;;;3.03;0.63;;;;;;;20.47;47.90;100340.69;4942307;29;20127;-72
2022/06/07 12:16:41;;;;;;;5.07;0.68;;;;;;;20.42;47.62;100336.66;4954941;29;20062;-68
2022/06/07 12:19:46;;;;;;;4.38;0.70;;;;;;;20.50;47.86;100335.06;4954291;29;20046;-73
2022/06/07 12:22:50;;;;;;;3.85;0.50;;;;;;;20.51;47.90;100334.06;4953672;29;20049;-72
2022/06/07 12:26:06;;;;;;;2.53;0.60;;;;;;;20.63;48.00;100339.06;4954379;29;20537;-72
2022/06/07 12:29:11;;;;;;;10.15;1.13;;;;;;;20.84;47.71;100337.97;4950695;29;20090;-72
2022/06/07 12:32:28;;;;;;;2.55;0.50;;;;;;;20.75;48.05;100325.56;4954547;28;20109;-73
2022/06/07 12:35:32;;;;;;;1.73;0.50;;;;;;;21.24;47.45;100331.31;4954531;29;20054;-63
2022/06/07 12:38:35;;;;;;;4.65;0.50;;;;;;;21.50;46.27;100324.25;4954405;29;20113;-71
2022/06/07 12:41:59;;;;;;;1.98;0.40;;;;;;;21.50;45.98;100313.59;4954558;29;20046;-71
2022/06/07 12:45:19;;;;;;;4.90;0.70;;;;;;;22.00;45.07;100307.56;4954520;29;20050;-65
2022/06/07 12:52:50;;;;;;;5.90;1.00;;;;;;;21.80;45.87;100306.16;4946660;28;20097;-71
2022/06/07 12:56:03;;;;;;;2.60;0.47;;;;;;;21.40;45.80;100298.75;4954586;29;20054;-70
2022/06/07 12:59:16;;;;;;;2.78;0.60;;;;;;;21.31;45.67;100305.78;4954359;29;20039;-71
2022/06/07 13:02:38;;;;;;;2.58;0.52;;;;;;;21.46;46.29;100300.78;4964382;28;20065;-71
2022/06/07 13:05:42;;;;;;;2.40;0.43;;;;;;;21.57;45.89;100303.19;4953962;29;20093;-71
2022/06/07 13:09:03;;;;;;;8.52;0.50;;;;;;;21.60;45.25;100300.19;4964525;28;20106;-71
2022/06/07 13:12:10;;;;;;;2.22;0.40;;;;;;;22.29;43.86;100293.06;4954159;29;20046;-74
2022/06/07 13:15:25;;;;;;;2.13;0.60;;;;;;;23.24;42.00;100287.38;4964291;28;20081;-71
2022/06/07 13:18:36;;;;;;;1.40;0.40;;;;;;;23.11;41.82;100279.91;4953972;29;20142;-70
2022/06/07 13:22:02;;;;;;;3.30;0.40;;;;;;;22.42;43.82;100274.78;4953186;29;20042;-71
2022/06/07 13:25:32;;;;;;;1.70;0.38;;;;;;;22.39;44.13;100280.44;4953436;29;20437;-71
2022/06/07 13:28:37;;;;;;;2.33;0.30;;;;;;;22.75;43.49;100273.03;4953747;29;20089;-70
2022/06/07 13:31:52;;;;;;;1.88;0.40;;;;;;;22.68;43.36;100263.16;4964094;28;20580;-69
2022/06/07 13:34:57;;;;;;;4.70;0.43;;;;;;;22.32;44.30;100271.44;4953806;29;20046;-73
2022/06/07 13:38:18;;;;;;;2.35;0.50;;;;;;;22.29;44.84;100271.75;4952615;29;20050;-70
2022/06/07 13:41:27;;;;;;;3.10;0.55;;;;;;;23.75;41.40;100262.13;4953886;29;20552;-71
2022/06/07 13:44:40;;;;;;;2.65;0.50;;;;;;;22.71;44.23;100276.16;4953920;29;20119;-71
2022/06/07 13:48:08;;;;;;;;;;;;;;;22.29;45.51;100259.28;4954422;29;20461;-70
2022/06/07 13:54:51;;;;;;;7.40;0.70;;;;;;;23.95;42.31;100246.50;4953391;29;20050;-70
2022/06/07 13:57:59;;;;;;;3.97;0.60;;;;;;;24.46;40.87;100238.09;4952072;29;20038;-70
2022/06/07 14:01:33;;;;;;;3.53;1.00;;;;;;;25.06;38.96;100237.28;4942107;29;20070;-71
2022/06/07 14:04:38;;;;;;;2.45;0.77;;;;;;;24.20;39.86;100233.88;4954498;28;20050;-71
2022/06/07 14:07:42;;;;;;;1.98;0.38;;;;;;;24.31;41.11;100233.50;4957269;29;20062;-76
2022/06/07 14:10:46;;;;;;;2.45;0.40;;;;;;;22.92;44.34;100249.88;4957702;29;20102;-73
2022/06/07 14:13:49;;;;;;;1.63;0.30;;;;;;;22.29;46.27;100237.13;4957673;29;20050;-70
2022/06/07 14:16:55;;;;;;;2.05;0.10;;;;;;;22.20;46.37;100230.13;4957542;29;20069;-70
2022/06/07 14:19:59;;;;;;;1.38;0.25;;;;;;;22.05;47.05;100233.38;4957296;29;20141;-71
2022/06/07 14:23:03;;;;;;;2.75;0.20;;;;;;;21.79;47.07;100244.09;4957094;29;20461;-69
2022/06/07 14:26:07;;;;;;;3.53;0.50;;;;;;;21.78;47.37;100238.94;4957803;29;20089;-70
2022/06/07 14:29:14;;;;;;;2.22;0.40;;;;;;;21.73;47.95;100250.06;4957129;29;20105;-70
2022/06/07 14:32:27;;;;;;;0.98;0.30;;;;;;;21.30;49.05;100243.78;4953829;28;20077;-71
2022/06/07 14:35:33;;;;;;;1.58;0.20;;;;;;;21.38;49.32;100250.16;4956085;29;20122;-69
2022/06/07 14:38:36;;;;;;;1.63;0.32;;;;;;;21.47;49.26;100258.03;4956232;29;20469;-63
2022/06/07 14:41:40;;;;;;;2.53;0.25;;;;;;;21.00;52.10;100274.31;4956021;29;20174;-69
2022/06/07 14:44:45;;;;;;;2.03;0.52;;;;;;;20.88;56.02;100281.69;4595535;29;10001560;-69
2022/06/07 14:47:58;;;;;;;2.20;0.40;;;;;;;20.62;59.17;100286.09;4937842;29;20118;-70
2022/06/07 14:51:15;;;;;;;3.85;0.88;;;;;;;21.08;59.63;100274.38;4937397;29;20085;-72
2022/06/07 14:54:37;;;;;;;1.67;0.50;;;;;;;22.56;56.25;100262.69;4937755;29;20139;-62
2022/06/07 14:57:43;;;;;;;2.92;0.47;;;;;;;27.83;41.92;100253.09;4937422;29;20409;-64
2022/06/07 15:00:47;;;;;;;1.92;0.45;;;;;;;28.72;39.16;100246.75;4937390;29;20046;-64
2022/06/07 15:03:52;;;;;;;3.10;0.95;;;;;;;25.15;44.60;100254.94;4947649;29;20062;-64
2022/06/07 15:06:56;;;;;;;1.08;0.30;;;;;;;23.43;47.89;100266.50;4969136;28;20048;-64
2022/06/07 15:09:59;;;;;;;1.48;0.35;;;;;;;22.29;50.38;100264.59;4985615;28;20089;-63
2022/06/07 15:13:15;;;;;;;0.65;0.20;;;;;;;23.29;48.18;100259.19;4974516;28;20181;-70
2022/06/07 15:16:21;;;;;;;1.23;0.30;;;;;;;25.15;43.35;100249.59;4974010;28;20101;-70
2022/06/07 15:19:28;;;;;;;2.05;0.43;;;;;;;22.78;48.50;100255.00;4963864;28;20078;-70
2022/06/07 15:22:32;;;;;;;4.78;0.40;;;;;;;22.74;49.59;100249.19;4943843;29;20047;-70